Terminal Aerodrome Forecast
Issued by NWS Albany, NY

Home | Current Version | Previous Version | Text Only | Print | Product List | Glossary On
Versions: 1 2 3 4 5 6 7 8 9 10 11 12 13 14 15 16 17 18
000
FTUS41 KALY 202000 AAB
TAFPOU
TAF AMD
KPOU 202029Z 2020/2118 02005KT P6SM OVC030
     FM210100 01004KT P6SM BKN025 OVC040
     FM210800 VRB03KT P6SM VCSH BKN015 OVC025 PROB30 2111/2115 5SM
      -SHSN BR BKN010 OVC025=

USA.gov is the U.S. government's official web portal to all federal, state and local government web resources and services.